Time;durP1;ratioP1;P1;durP2;ratioP2;P2;SDS_P1;SDS_P2;PMS_P1;PMS_P2;Temp;Humidity;BMP_temperature;BMP_pressure;BME280_temperature;BME280_humidity;BME280_pressure;Samples;Min_cycle;Max_cycle;Signal;HPM_P1;HPM_P2
2023/02/22 00:00:18;;;;;;;4.97;1.20;;;3.80;99.90;;;;;;5014555;28;20185;-84
2023/02/22 00:02:53;;;;;;;0.67;0.67;;;3.80;99.90;;;;;;5014185;28;20179;-84
2023/02/22 00:05:19;;;;;;;6.50;1.60;;;3.90;99.90;;;;;;5014627;28;20168;-84
2023/02/22 00:07:48;;;;;;;1.63;1.43;;;3.90;99.90;;;;;;5032042;28;20191;-84
2023/02/22 00:10:19;;;;;;;1.53;1.40;;;3.90;99.90;;;;;;5014173;28;20580;-84
2023/02/22 00:12:47;;;;;;;2.80;1.33;;;3.80;99.90;;;;;;5014437;28;20541;-84
2023/02/22 00:15:14;;;;;;;2.00;0.90;;;3.90;99.90;;;;;;5031620;28;20177;-85
2023/02/22 00:17:40;;;;;;;4.63;1.13;;;3.90;99.90;;;;;;5032100;28;20206;-85
2023/02/22 00:20:07;;;;;;;2.87;1.37;;;3.90;99.90;;;;;;5013618;28;20184;-84
2023/02/22 00:22:33;;;;;;;1.23;1.13;;;3.90;99.90;;;;;;5031637;28;20235;-85
2023/02/22 00:24:59;;;;;;;1.30;1.13;;;3.90;99.90;;;;;;5013974;28;20176;-84
2023/02/22 00:27:24;;;;;;;1.73;1.50;;;4.00;99.90;;;;;;5023248;28;20235;-85
2023/02/22 00:29:50;;;;;;;4.10;1.43;;;4.00;99.90;;;;;;4978703;28;20743;-85
2023/02/22 00:32:16;;;;;;;1.50;1.10;;;4.00;99.90;;;;;;4994335;28;20212;-84
2023/02/22 00:34:42;;;;;;;2.60;2.27;;;4.10;99.90;;;;;;4978412;28;20243;-85
2023/02/22 00:37:09;;;;;;;2.13;1.77;;;4.10;99.90;;;;;;4994484;28;20177;-84
2023/02/22 00:39:35;;;;;;;4.37;1.47;;;4.10;99.90;;;;;;5011798;28;20201;-84
2023/02/22 00:42:01;;;;;;;4.27;1.63;;;4.00;99.90;;;;;;4978245;28;20224;-83
2023/02/22 00:44:26;;;;;;;1.67;0.90;;;4.10;99.90;;;;;;4996670;28;20265;-84
2023/02/22 00:46:52;;;;;;;3.17;1.10;;;4.10;99.90;;;;;;4999656;28;20193;-84
2023/02/22 00:49:18;;;;;;;2.70;1.37;;;4.10;99.90;;;;;;5002491;28;20212;-85
2023/02/22 00:51:44;;;;;;;3.17;1.77;;;4.00;99.90;;;;;;5004826;28;20209;-84
2023/02/22 00:54:10;;;;;;;1.77;1.37;;;4.00;99.90;;;;;;5022120;28;20193;-84
2023/02/22 00:56:36;;;;;;;3.90;1.97;;;4.00;99.90;;;;;;5023266;28;20174;-84
2023/02/22 00:59:03;;;;;;;3.23;1.63;;;4.00;99.90;;;;;;5003484;28;20180;-85
2023/02/22 01:01:30;;;;;;;6.07;2.80;;;4.00;99.90;;;;;;5015455;28;20616;-85
2023/02/22 01:03:56;;;;;;;4.93;2.13;;;4.00;99.90;;;;;;4997961;28;20204;-85
2023/02/22 01:06:21;;;;;;;7.47;1.50;;;4.00;99.90;;;;;;4981353;28;20638;-84
2023/02/22 01:08:48;;;;;;;1.43;1.33;;;4.00;99.90;;;;;;4997892;28;20208;-84
2023/02/22 01:11:15;;;;;;;2.03;1.67;;;4.00;99.90;;;;;;5007484;28;20216;-84
2023/02/22 01:13:44;;;;;;;8.97;2.10;;;4.00;99.90;;;;;;5003719;28;20288;-84
2023/02/22 01:16:10;;;;;;;7.83;1.87;;;4.00;99.90;;;;;;4998793;28;20182;-85
2023/02/22 01:18:36;;;;;;;2.57;1.50;;;4.00;99.90;;;;;;4997766;28;20658;-84
2023/02/22 01:21:05;;;;;;;3.37;1.57;;;4.10;99.90;;;;;;5014685;28;20185;-84
2023/02/22 01:23:32;;;;;;;1.93;1.67;;;4.20;99.90;;;;;;4997324;28;20244;-84
2023/02/22 01:25:57;;;;;;;3.33;1.23;;;4.10;99.90;;;;;;4997353;28;20192;-84
2023/02/22 01:28:23;;;;;;;2.83;1.33;;;4.10;99.90;;;;;;4993586;28;20233;-83
2023/02/22 01:30:49;;;;;;;3.63;1.43;;;4.10;99.90;;;;;;4999838;28;20570;-84
2023/02/22 01:33:15;;;;;;;4.03;2.20;;;4.10;99.90;;;;;;4996931;28;20559;-83
2023/02/22 01:35:42;;;;;;;2.60;1.67;;;4.10;99.90;;;;;;4996966;28;20540;-84
2023/02/22 01:38:09;;;;;;;8.90;2.60;;;4.10;99.90;;;;;;5013148;28;20185;-84
2023/02/22 01:40:38;;;;;;;4.00;2.77;;;4.10;99.90;;;;;;4997050;28;20193;-84
2023/02/22 01:43:14;;;;;;;4.73;2.00;;;4.10;99.90;;;;;;4996534;28;20255;-84
2023/02/22 01:45:46;;;;;;;3.17;2.87;;;4.10;99.90;;;;;;5014521;28;20169;-84
2023/02/22 01:48:43;;;;;;;4.77;2.43;;;4.00;99.90;;;;;;5014019;28;20533;-83
2023/02/22 01:51:19;;;;;;;11.20;2.37;;;4.10;99.90;;;;;;5013821;28;20228;-84
2023/02/22 01:53:54;;;;;;;15.00;3.53;;;4.10;99.90;;;;;;5015158;28;20676;-84
2023/02/22 01:56:22;;;;;;;11.70;3.30;;;4.10;99.90;;;;;;5014975;28;20271;-83
2023/02/22 01:58:58;;;;;;;7.53;3.13;;;4.10;99.90;;;;;;4997833;28;20192;-84
2023/02/22 02:01:24;;;;;;;9.27;3.10;;;4.10;99.90;;;;;;5015032;28;20172;-84
2023/02/22 02:03:51;;;;;;;8.10;2.87;;;4.10;99.90;;;;;;4996718;28;20335;-83
2023/02/22 02:06:18;;;;;;;7.13;2.83;;;3.60;99.90;;;;;;4996276;28;20185;-83
2023/02/22 02:08:50;;;;;;;15.77;3.90;;;4.00;99.90;;;;;;5011930;28;20184;-83
2023/02/22 02:11:19;;;;;;;9.47;2.83;;;4.00;99.90;;;;;;5013449;28;20584;-83
2023/02/22 02:13:48;;;;;;;10.03;2.33;;;4.00;99.90;;;;;;5013790;28;20220;-83
2023/02/22 02:16:14;;;;;;;10.03;2.50;;;4.00;99.90;;;;;;4996254;28;20193;-83
2023/02/22 02:18:40;;;;;;;3.57;2.43;;;4.00;99.90;;;;;;4996287;28;20567;-83
2023/02/22 02:21:37;;;;;;;5.60;2.80;;;4.00;99.90;;;;;;5013843;28;20181;-84
2023/02/22 02:24:18;;;;;;;4.47;2.43;;;4.00;99.90;;;;;;4996313;28;20169;-83
2023/02/22 02:27:18;;;;;;;3.97;2.60;;;4.00;99.90;;;;;;5013241;28;22009;-83
2023/02/22 02:29:53;;;;;;;7.20;2.73;;;3.90;99.90;;;;;;4979962;28;20189;-83
2023/02/22 02:32:33;;;;;;;7.97;3.07;;;3.90;99.90;;;;;;4995572;28;20197;-83
2023/02/22 02:35:32;;;;;;;9.57;2.60;;;3.90;99.90;;;;;;4995556;28;20247;-83
2023/02/22 02:38:07;;;;;;;5.67;2.67;;;3.90;99.90;;;;;;4995854;28;20177;-83
2023/02/22 02:40:46;;;;;;;5.07;1.70;;;3.90;99.90;;;;;;5013608;28;20161;-83
2023/02/22 02:43:26;;;;;;;9.10;3.30;;;3.80;99.90;;;;;;5013196;28;20157;-83
2023/02/22 02:46:21;;;;;;;1.67;1.57;;;3.80;99.90;;;;;;4995825;28;20178;-83
2023/02/22 02:48:55;;;;;;;2.73;1.77;;;3.80;99.90;;;;;;5013412;28;20177;-82
2023/02/22 02:51:24;;;;;;;5.03;1.90;;;3.80;99.90;;;;;;4995299;28;20287;-82
2023/02/22 02:53:51;;;;;;;5.27;2.23;;;3.70;99.90;;;;;;5012855;28;20181;-83
2023/02/22 02:56:17;;;;;;;3.27;2.03;;;3.60;99.90;;;;;;4979191;28;20577;-82
2023/02/22 02:58:49;;;;;;;6.03;2.13;;;3.60;99.90;;;;;;5012835;28;20684;-85
2023/02/22 03:02:00;;;;;;;5.27;1.93;;;3.60;99.90;;;;;;5012788;28;20188;-83
2023/02/22 03:04:36;;;;;;;7.17;1.87;;;3.50;99.90;;;;;;4935851;29;20215;-83
2023/02/22 03:07:45;;;;;;;18.50;3.00;;;3.50;99.90;;;;;;4936035;29;20175;-83
2023/02/22 03:10:31;;;;;;;11.00;2.43;;;3.50;99.90;;;;;;4952222;28;20212;-83
2023/02/22 03:13:21;;;;;;;3.17;1.87;;;3.50;99.90;;;;;;5013128;28;20157;-83
2023/02/22 03:16:18;;;;;;;3.00;2.13;;;3.40;99.90;;;;;;4995217;28;20579;-83
2023/02/22 03:19:03;;;;;;;3.20;1.93;;;3.40;99.90;;;;;;5012783;28;20161;-83
2023/02/22 03:21:46;;;;;;;10.37;2.93;;;3.40;99.90;;;;;;5012277;28;20191;-83
2023/02/22 03:24:26;;;;;;;2.37;1.80;;;3.50;99.90;;;;;;5012545;28;20257;-83
2023/02/22 03:27:08;;;;;;;4.47;2.60;;;3.40;99.90;;;;;;5012716;28;20239;-83
2023/02/22 03:29:41;;;;;;;7.17;2.47;;;3.50;99.90;;;;;;5012723;28;20168;-84
2023/02/22 03:32:11;;;;;;;6.57;2.80;;;3.40;99.90;;;;;;4994972;28;20201;-84
2023/02/22 03:34:49;;;;;;;14.20;2.53;;;3.40;99.90;;;;;;4994915;28;20177;-84
2023/02/22 03:37:27;;;;;;;4.70;2.70;;;3.40;99.90;;;;;;4994868;28;20700;-84
2023/02/22 03:39:55;;;;;;;3.57;1.90;;;3.30;99.90;;;;;;5012719;28;20702;-83
2023/02/22 03:42:28;;;;;;;10.20;3.27;;;3.30;99.90;;;;;;4994798;28;20721;-83
2023/02/22 03:44:57;;;;;;;9.80;1.53;;;3.30;99.90;;;;;;4994798;28;20188;-84
2023/02/22 03:47:36;;;;;;;8.00;4.03;;;3.20;99.90;;;;;;4994344;28;20197;-83
2023/02/22 03:50:14;;;;;;;7.07;3.03;;;3.20;99.90;;;;;;4994810;28;20243;-83
2023/02/22 03:52:41;;;;;;;3.37;2.40;;;3.20;99.90;;;;;;4994563;28;20185;-83
2023/02/22 03:55:10;;;;;;;6.17;3.33;;;3.10;99.90;;;;;;4994541;28;20721;-83
2023/02/22 03:57:39;;;;;;;3.63;2.60;;;3.10;99.90;;;;;;4994004;28;20185;-83
2023/02/22 04:00:07;;;;;;;2.60;2.13;;;3.10;99.90;;;;;;5012314;28;20173;-82
2023/02/22 04:02:33;;;;;;;10.00;2.10;;;3.00;99.90;;;;;;5011695;28;20235;-84
2023/02/22 04:04:59;;;;;;;4.47;1.77;;;3.00;99.90;;;;;;4994785;28;20180;-83
2023/02/22 04:07:25;;;;;;;9.47;2.60;;;3.10;99.90;;;;;;4978147;28;20623;-83
2023/02/22 04:09:51;;;;;;;10.00;3.00;;;3.10;99.90;;;;;;5011703;28;20239;-84
2023/02/22 04:12:17;;;;;;;4.53;2.13;;;3.10;99.90;;;;;;5012031;28;20194;-83
2023/02/22 04:14:42;;;;;;;3.87;2.10;;;3.10;99.90;;;;;;4994481;28;20269;-83
2023/02/22 04:17:09;;;;;;;7.10;3.13;;;3.10;99.90;;;;;;4978324;28;20186;-83
2023/02/22 04:19:35;;;;;;;8.80;2.70;;;3.10;99.90;;;;;;5011566;28;20185;-83
2023/02/22 04:22:01;;;;;;;7.27;2.83;;;3.10;99.90;;;;;;5012272;28;20189;-84
2023/02/22 04:24:27;;;;;;;4.73;2.00;;;3.10;99.90;;;;;;4994541;28;20551;-83
2023/02/22 04:26:54;;;;;;;5.43;1.87;;;3.10;99.90;;;;;;5011464;28;20233;-83
2023/02/22 04:29:19;;;;;;;11.37;2.27;;;3.10;99.90;;;;;;4994687;28;20264;-83
2023/02/22 04:31:45;;;;;;;2.37;2.13;;;3.10;99.90;;;;;;4994959;28;20744;-84
2023/02/22 04:34:11;;;;;;;11.20;2.83;;;3.10;99.90;;;;;;5015717;28;20260;-84
2023/02/22 04:36:37;;;;;;;12.43;2.40;;;3.10;99.90;;;;;;5015229;28;20530;-83
2023/02/22 04:39:04;;;;;;;16.13;2.73;;;3.00;99.90;;;;;;4998146;28;20182;-83
2023/02/22 04:41:30;;;;;;;3.03;1.87;;;3.10;99.90;;;;;;4981624;28;20185;-83
2023/02/22 04:43:56;;;;;;;6.43;2.90;;;3.10;99.90;;;;;;4982064;28;20181;-84
2023/02/22 04:46:22;;;;;;;8.20;3.80;;;3.10;99.90;;;;;;4981674;28;20189;-83
2023/02/22 04:48:48;;;;;;;9.73;3.10;;;3.10;99.90;;;;;;4998014;28;20650;-84
2023/02/22 04:51:14;;;;;;;5.03;2.97;;;3.10;99.90;;;;;;5014753;28;20336;-84
2023/02/22 04:53:40;;;;;;;8.07;2.07;;;3.10;99.90;;;;;;5007996;28;20200;-84
2023/02/22 04:56:06;;;;;;;3.07;2.33;;;3.10;99.90;;;;;;5013681;28;20193;-84
2023/02/22 04:58:31;;;;;;;4.70;1.63;;;3.00;99.90;;;;;;4995865;28;20189;-84
2023/02/22 05:00:57;;;;;;;2.63;2.20;;;3.00;99.90;;;;;;4996278;28;20201;-85
2023/02/22 05:03:23;;;;;;;12.90;2.57;;;3.00;99.90;;;;;;4995522;28;20185;-84
2023/02/22 05:05:50;;;;;;;10.53;2.90;;;3.00;99.90;;;;;;5013623;28;20339;-84
2023/02/22 05:08:16;;;;;;;7.90;2.93;;;3.00;99.90;;;;;;5013394;28;20380;-85
2023/02/22 05:10:41;;;;;;;5.30;3.20;;;3.00;99.90;;;;;;4978571;28;20695;-84
2023/02/22 05:13:08;;;;;;;2.57;1.77;;;3.00;99.90;;;;;;4979053;28;20189;-85
2023/02/22 05:15:33;;;;;;;3.93;1.97;;;3.00;99.90;;;;;;4979913;28;20211;-85
2023/02/22 05:17:59;;;;;;;10.40;3.03;;;3.00;99.90;;;;;;4995618;28;20612;-85
2023/02/22 05:20:33;;;;;;;3.03;2.63;;;3.00;99.90;;;;;;4978895;28;20284;-85
2023/02/22 05:23:00;;;;;;;5.13;1.93;;;2.90;99.90;;;;;;4994864;28;20204;-84
2023/02/22 05:25:27;;;;;;;3.80;2.20;;;2.80;99.90;;;;;;4991880;28;20197;-85
2023/02/22 05:28:07;;;;;;;3.73;2.17;;;2.90;99.90;;;;;;4999599;28;20243;-85
2023/02/22 05:30:34;;;;;;;4.77;3.10;;;2.90;99.90;;;;;;5014800;28;20207;-85
2023/02/22 05:33:01;;;;;;;4.47;2.40;;;2.80;99.90;;;;;;5032523;28;20283;-85
2023/02/22 05:35:28;;;;;;;3.03;2.10;;;2.80;99.90;;;;;;5032612;28;20281;-85
2023/02/22 05:37:54;;;;;;;9.13;2.60;;;2.80;99.90;;;;;;5033767;28;20182;-84
2023/02/22 05:40:25;;;;;;;7.87;2.60;;;2.80;99.90;;;;;;5001238;28;20188;-85
2023/02/22 05:42:52;;;;;;;5.27;2.30;;;2.80;99.90;;;;;;5016943;28;20564;-84
2023/02/22 05:45:21;;;;;;;8.20;2.37;;;2.70;99.90;;;;;;5003655;28;20285;-85
2023/02/22 05:47:47;;;;;;;8.23;2.30;;;2.70;99.90;;;;;;5022730;28;20738;-84
2023/02/22 05:50:13;;;;;;;4.97;2.80;;;2.70;99.90;;;;;;5020142;28;20184;-86
2023/02/22 05:52:39;;;;;;;2.30;1.60;;;2.80;99.90;;;;;;5015233;28;20633;-85
2023/02/22 05:55:06;;;;;;;4.67;2.20;;;2.70;99.90;;;;;;5015687;28;20685;-85
2023/02/22 05:57:32;;;;;;;10.80;3.10;;;2.80;99.90;;;;;;5015323;28;20556;-85
2023/02/22 05:59:58;;;;;;;1.90;1.70;;;2.70;99.90;;;;;;5000065;28;20544;-85
2023/02/22 06:02:24;;;;;;;10.33;2.37;;;2.70;99.90;;;;;;5033551;28;20271;-85
2023/02/22 06:04:49;;;;;;;8.13;2.17;;;2.60;99.90;;;;;;5033370;28;20587;-86
2023/02/22 06:07:15;;;;;;;1.70;1.60;;;2.70;99.90;;;;;;4999383;28;20231;-85
2023/02/22 06:09:41;;;;;;;3.97;1.60;;;2.60;99.90;;;;;;5016278;28;20191;-83
2023/02/22 06:12:07;;;;;;;3.90;2.00;;;2.60;99.90;;;;;;5000699;28;20204;-83
2023/02/22 06:14:34;;;;;;;2.20;1.73;;;2.60;99.90;;;;;;5035083;28;20209;-83
2023/02/22 06:16:59;;;;;;;6.03;2.20;;;2.60;99.90;;;;;;5017397;28;20186;-84
2023/02/22 06:19:26;;;;;;;2.17;1.70;;;2.50;99.90;;;;;;5034995;28;20581;-82
2023/02/22 06:21:54;;;;;;;8.53;2.43;;;2.50;99.90;;;;;;5034789;28;20180;-82
2023/02/22 06:24:21;;;;;;;6.43;2.47;;;2.50;99.90;;;;;;5034747;28;20676;-85
2023/02/22 06:26:57;;;;;;;4.23;1.70;;;2.50;99.90;;;;;;5031432;28;20289;-84
2023/02/22 06:29:24;;;;;;;3.50;2.20;;;2.50;99.90;;;;;;4997101;28;20177;-83
2023/02/22 06:31:50;;;;;;;4.23;2.03;;;2.50;99.90;;;;;;4980690;28;20274;-84
2023/02/22 06:34:16;;;;;;;3.93;3.10;;;2.60;99.90;;;;;;5014455;28;20264;-84
2023/02/22 06:36:42;;;;;;;2.17;1.57;;;2.60;99.90;;;;;;5014068;28;20181;-84
2023/02/22 06:39:11;;;;;;;2.67;1.70;;;2.70;99.90;;;;;;4996306;28;20684;-84
2023/02/22 06:41:38;;;;;;;2.37;1.67;;;2.70;99.90;;;;;;4979926;28;20193;-84
2023/02/22 06:44:04;;;;;;;1.60;1.40;;;2.90;99.90;;;;;;4979790;28;20178;-84
2023/02/22 06:46:30;;;;;;;2.60;1.83;;;3.10;99.90;;;;;;4995586;28;20181;-87
2023/02/22 06:48:58;;;;;;;3.00;1.47;;;3.10;99.90;;;;;;4995861;28;20276;-84
2023/02/22 06:51:25;;;;;;;1.87;1.70;;;3.10;99.90;;;;;;5013101;28;20209;-84
2023/02/22 06:53:50;;;;;;;1.40;1.30;;;3.10;99.90;;;;;;5012930;28;20233;-84
2023/02/22 06:56:16;;;;;;;2.30;1.57;;;2.90;99.90;;;;;;4980295;28;20753;-83
2023/02/22 06:58:42;;;;;;;2.13;1.93;;;2.90;99.90;;;;;;5000011;28;20247;-84
2023/02/22 07:01:07;;;;;;;5.47;1.50;;;2.80;99.90;;;;;;4979046;28;20284;-85
2023/02/22 07:03:34;;;;;;;1.53;1.43;;;2.80;99.90;;;;;;5013112;28;20268;-85
2023/02/22 07:06:01;;;;;;;2.90;2.40;;;2.80;99.90;;;;;;4979811;28;20254;-85
2023/02/22 07:08:27;;;;;;;4.07;1.50;;;2.80;99.90;;;;;;5013257;28;20229;-84
2023/02/22 07:10:53;;;;;;;3.17;1.70;;;2.80;99.90;;;;;;4995169;28;20258;-84
2023/02/22 07:13:19;;;;;;;2.63;1.60;;;2.70;99.90;;;;;;4979662;28;20228;-83
2023/02/22 07:15:45;;;;;;;3.70;2.60;;;2.70;99.90;;;;;;4995152;28;20247;-83
2023/02/22 07:18:12;;;;;;;1.10;1.10;;;2.60;99.90;;;;;;5013077;28;20232;-85
2023/02/22 07:20:38;;;;;;;2.80;1.80;;;2.60;99.90;;;;;;5012079;28;20560;-83
2023/02/22 07:23:05;;;;;;;2.43;1.97;;;2.70;99.90;;;;;;5013028;28;20203;-84
2023/02/22 07:25:30;;;;;;;1.73;1.43;;;2.80;99.90;;;;;;5013867;28;20298;-83
2023/02/22 07:27:56;;;;;;;1.63;1.53;;;2.70;99.90;;;;;;5005012;28;20311;-83
2023/02/22 07:30:29;;;;;;;1.97;1.60;;;2.80;99.90;;;;;;5012972;28;20554;-83
2023/02/22 07:32:56;;;;;;;3.07;2.13;;;2.80;99.90;;;;;;5012737;28;20185;-86
2023/02/22 07:35:25;;;;;;;1.50;1.40;;;2.80;99.90;;;;;;4995029;28;20192;-84
2023/02/22 07:37:50;;;;;;;2.27;1.40;;;2.90;99.90;;;;;;5012923;28;20216;-85
2023/02/22 07:40:17;;;;;;;2.73;2.17;;;2.90;99.90;;;;;;4995487;28;20581;-84
2023/02/22 07:43:00;;;;;;;3.80;1.17;;;2.90;99.90;;;;;;5011540;28;20177;-85
2023/02/22 07:45:29;;;;;;;1.60;1.47;;;3.00;99.90;;;;;;5011716;28;20185;-84
2023/02/22 07:47:55;;;;;;;2.03;1.40;;;3.00;99.90;;;;;;5011438;28;20260;-86
2023/02/22 07:50:22;;;;;;;2.30;2.10;;;3.10;99.90;;;;;;4995365;28;20244;-85
2023/02/22 07:52:52;;;;;;;5.60;3.90;;;3.20;99.90;;;;;;5011268;28;20185;-85
2023/02/22 07:55:22;;;;;;;2.03;1.77;;;3.30;99.90;;;;;;5011599;28;20662;-84
2023/02/22 07:57:49;;;;;;;7.27;3.50;;;3.30;99.90;;;;;;5013183;28;20186;-85
2023/02/22 08:00:27;;;;;;;1.30;1.23;;;3.30;99.90;;;;;;5010806;28;20719;-85
2023/02/22 08:02:53;;;;;;;3.10;2.30;;;3.20;99.90;;;;;;5011501;28;20278;-86
2023/02/22 08:05:22;;;;;;;1.43;1.33;;;2.00;99.90;;;;;;5011244;28;20671;-85
2023/02/22 08:07:47;;;;;;;1.87;1.20;;;3.20;99.90;;;;;;5013716;28;20209;-87
2023/02/22 08:10:14;;;;;;;3.13;1.83;;;3.10;99.90;;;;;;5016394;28;20708;-85
2023/02/22 08:12:40;;;;;;;1.43;1.33;;;3.10;99.90;;;;;;5014756;28;20187;-87
2023/02/22 08:15:08;;;;;;;5.03;2.63;;;3.10;99.90;;;;;;5015038;28;20264;-83
2023/02/22 08:17:34;;;;;;;5.73;1.77;;;3.20;99.90;;;;;;5014781;28;20173;-87
2023/02/22 08:20:01;;;;;;;1.80;1.70;;;3.10;99.90;;;;;;4998145;28;20231;-86
2023/02/22 08:22:27;;;;;;;4.17;2.03;;;3.20;99.90;;;;;;4998638;28;20509;-88
2023/02/22 08:24:54;;;;;;;1.57;1.47;;;3.30;99.90;;;;;;5014482;28;20240;-85
2023/02/22 08:27:27;;;;;;;1.60;1.20;;;3.30;99.90;;;;;;5014399;28;20228;-86
2023/02/22 08:29:54;;;;;;;3.47;1.20;;;3.40;99.90;;;;;;5014655;28;20173;-85
2023/02/22 08:32:20;;;;;;;2.47;1.80;;;3.50;99.90;;;;;;5015463;28;20266;-86
2023/02/22 08:34:46;;;;;;;6.03;1.93;;;3.50;99.90;;;;;;4998161;28;20196;-86
2023/02/22 08:37:14;;;;;;;1.53;1.43;;;3.50;99.90;;;;;;5014846;28;20185;-85
2023/02/22 08:39:40;;;;;;;0.70;0.70;;;3.20;99.90;;;;;;5015862;28;20177;-86
2023/02/22 08:42:07;;;;;;;1.90;1.80;;;3.00;99.90;;;;;;5015831;28;20268;-86
2023/02/22 08:44:34;;;;;;;1.30;1.20;;;3.00;99.90;;;;;;5014314;28;20543;-86
2023/02/22 08:47:00;;;;;;;1.80;1.63;;;3.20;99.90;;;;;;5014102;28;20183;-86
2023/02/22 08:49:25;;;;;;;3.90;2.27;;;3.30;99.90;;;;;;4998336;28;20647;-86
2023/02/22 08:51:51;;;;;;;1.60;1.43;;;3.30;99.90;;;;;;4997874;28;20752;-85
2023/02/22 08:54:17;;;;;;;1.20;1.20;;;3.30;99.90;;;;;;5015634;28;20548;-84
2023/02/22 08:56:43;;;;;;;2.50;1.53;;;3.30;99.90;;;;;;5014532;28;20642;-85
2023/02/22 08:59:09;;;;;;;1.33;1.23;;;3.40;99.90;;;;;;5013926;28;20182;-85
2023/02/22 09:01:35;;;;;;;1.77;1.67;;;3.40;99.90;;;;;;5014204;28;20232;-85
2023/02/22 09:04:01;;;;;;;2.77;1.70;;;3.50;99.90;;;;;;5013399;28;20645;-86
2023/02/22 09:06:27;;;;;;;6.90;1.87;;;3.60;99.90;;;;;;5014745;28;20573;-85
2023/02/22 09:08:53;;;;;;;2.13;1.93;;;3.60;99.90;;;;;;5011648;28;20247;-86
2023/02/22 09:11:18;;;;;;;3.17;2.63;;;3.50;99.90;;;;;;4997636;28;20736;-86
2023/02/22 09:13:44;;;;;;;1.37;1.27;;;3.50;99.90;;;;;;4997834;28;20195;-86
2023/02/22 09:16:10;;;;;;;1.47;1.07;;;3.70;99.90;;;;;;5014099;28;20269;-86
2023/02/22 09:18:35;;;;;;;1.63;1.53;;;3.70;99.90;;;;;;4997147;28;20208;-85
2023/02/22 09:21:02;;;;;;;1.13;1.03;;;3.70;99.90;;;;;;5013798;28;20261;-86
2023/02/22 09:23:28;;;;;;;2.67;1.90;;;3.70;99.90;;;;;;5013909;28;20240;-86
2023/02/22 09:25:54;;;;;;;1.40;1.23;;;3.80;99.90;;;;;;5013643;28;20209;-84
2023/02/22 09:28:20;;;;;;;2.13;1.67;;;3.80;99.90;;;;;;5013559;28;20260;-85
2023/02/22 09:30:46;;;;;;;1.30;1.20;;;3.60;99.90;;;;;;4997834;28;20255;-86
2023/02/22 09:33:15;;;;;;;1.33;1.23;;;3.70;99.90;;;;;;4998076;28;20193;-85
2023/02/22 09:35:45;;;;;;;1.20;1.10;;;3.80;99.90;;;;;;5016356;28;20239;-86
2023/02/22 09:38:18;;;;;;;0.80;0.80;;;3.70;99.90;;;;;;5022703;28;20190;-84
2023/02/22 09:40:53;;;;;;;3.03;1.97;;;3.70;99.90;;;;;;5020967;28;20173;-85
2023/02/22 09:43:31;;;;;;;4.50;2.40;;;3.60;99.90;;;;;;5014888;28;20184;-85
2023/02/22 09:46:03;;;;;;;4.70;2.03;;;3.70;99.90;;;;;;5016145;28;20177;-85
2023/02/22 09:48:33;;;;;;;1.47;1.07;;;3.90;99.90;;;;;;5014534;28;20239;-85
2023/02/22 09:51:03;;;;;;;4.70;1.67;;;3.90;99.90;;;;;;5015653;28;20211;-86
2023/02/22 09:53:40;;;;;;;3.90;1.53;;;3.80;99.90;;;;;;5014547;28;20189;-85
2023/02/22 09:56:09;;;;;;;1.80;1.47;;;3.70;99.90;;;;;;5016953;28;20248;-85
2023/02/22 09:58:41;;;;;;;2.03;1.50;;;3.70;99.90;;;;;;5016061;28;20177;-85
2023/02/22 10:01:43;;;;;;;1.70;1.40;;;3.70;99.90;;;;;;5023432;28;20682;-85
2023/02/22 10:04:40;;;;;;;1.50;1.40;;;3.70;99.90;;;;;;5031635;28;20177;-85
2023/02/22 10:07:41;;;;;;;1.27;1.20;;;3.70;99.90;;;;;;5024152;28;20189;-85
2023/02/22 10:10:16;;;;;;;2.17;1.80;;;3.70;99.90;;;;;;4994454;28;20552;-85
2023/02/22 10:12:59;;;;;;;1.27;1.23;;;3.60;99.90;;;;;;5015649;28;20168;-83
2023/02/22 10:15:33;;;;;;;4.20;1.60;;;3.60;99.90;;;;;;5027694;28;20165;-84
2023/02/22 10:18:26;;;;;;;2.03;1.43;;;3.60;99.90;;;;;;5032698;28;20183;-83
2023/02/22 10:21:07;;;;;;;3.30;1.60;;;3.60;99.90;;;;;;5028325;28;20185;-84
2023/02/22 10:23:37;;;;;;;2.00;1.80;;;3.60;99.90;;;;;;5031525;28;20173;-83
2023/02/22 10:26:21;;;;;;;5.57;1.70;;;3.50;99.90;;;;;;5014878;28;20197;-86
2023/02/22 10:29:09;;;;;;;1.60;1.50;;;3.50;99.90;;;;;;5034438;28;20220;-84
2023/02/22 10:31:41;;;;;;;3.07;1.53;;;3.50;99.90;;;;;;5016718;28;20208;-83
2023/02/22 10:34:25;;;;;;;3.67;1.30;;;3.50;99.90;;;;;;5033912;28;20172;-83
2023/02/22 10:37:07;;;;;;;3.03;2.20;;;3.60;99.90;;;;;;5014991;28;20184;-85
2023/02/22 10:39:54;;;;;;;2.43;1.27;;;3.60;99.90;;;;;;5032838;28;20188;-84
2023/02/22 10:42:25;;;;;;;1.50;1.40;;;3.70;99.90;;;;;;5019657;28;20233;-85
2023/02/22 10:44:51;;;;;;;2.03;1.83;;;3.70;99.90;;;;;;5017369;28;20177;-86
2023/02/22 10:47:18;;;;;;;1.63;1.53;;;3.60;99.90;;;;;;4999362;28;20218;-85
2023/02/22 10:49:55;;;;;;;1.63;1.30;;;3.60;99.90;;;;;;5033532;28;20205;-86
2023/02/22 10:52:28;;;;;;;1.63;1.40;;;3.50;99.90;;;;;;5033364;28;20276;-85
2023/02/22 10:54:56;;;;;;;2.07;1.83;;;3.50;99.90;;;;;;5031327;28;20255;-86
2023/02/22 10:57:27;;;;;;;1.57;1.47;;;3.60;99.90;;;;;;5033032;28;20189;-86
2023/02/22 10:59:56;;;;;;;1.30;1.20;;;3.60;99.90;;;;;;5033061;28;20201;-86
2023/02/22 11:02:33;;;;;;;2.03;1.50;;;3.50;99.90;;;;;;5015454;28;20211;-83
2023/02/22 11:05:03;;;;;;;2.33;1.27;;;3.50;99.90;;;;;;5033439;28;20179;-83
2023/02/22 11:07:34;;;;;;;1.73;1.63;;;3.50;99.90;;;;;;5015252;28;20437;-83
2023/02/22 11:10:02;;;;;;;1.67;1.27;;;3.50;99.90;;;;;;5030020;28;20213;-84
2023/02/22 11:12:30;;;;;;;2.40;1.83;;;3.40;99.90;;;;;;5014490;28;20204;-85
2023/02/22 11:15:21;;;;;;;5.37;3.10;;;3.40;99.90;;;;;;5017841;28;20704;-85
2023/02/22 11:17:50;;;;;;;3.80;1.70;;;3.20;99.90;;;;;;5014672;28;20685;-84
2023/02/22 11:20:25;;;;;;;1.70;1.60;;;3.20;99.90;;;;;;5016734;28;20250;-85
2023/02/22 11:22:53;;;;;;;1.50;1.40;;;3.10;99.90;;;;;;5014934;28;20173;-85
2023/02/22 11:25:23;;;;;;;2.93;1.37;;;3.30;99.90;;;;;;5014420;28;20186;-86
2023/02/22 11:27:51;;;;;;;1.60;1.50;;;3.30;99.90;;;;;;5015679;28;20242;-83
2023/02/22 11:30:28;;;;;;;3.27;1.87;;;3.40;99.90;;;;;;5016105;28;20184;-85
2023/02/22 11:33:14;;;;;;;2.07;1.40;;;3.40;99.90;;;;;;5032818;28;20253;-84
2023/02/22 11:35:56;;;;;;;1.23;1.13;;;3.40;99.90;;;;;;5015335;28;20204;-84
2023/02/22 11:38:29;;;;;;;1.57;1.47;;;3.50;99.90;;;;;;5015658;28;20184;-84
2023/02/22 11:41:13;;;;;;;2.03;1.33;;;3.50;99.90;;;;;;5013995;28;20217;-84
2023/02/22 11:43:42;;;;;;;2.87;1.50;;;3.50;99.90;;;;;;5031867;28;20204;-84
2023/02/22 11:46:20;;;;;;;1.40;1.30;;;3.50;99.90;;;;;;5031561;28;20634;-85
2023/02/22 11:48:56;;;;;;;5.63;3.70;;;3.60;99.90;;;;;;5014259;28;20180;-84
2023/02/22 11:51:46;;;;;;;2.90;1.67;;;3.70;99.90;;;;;;5032162;28;20657;-85
2023/02/22 11:54:33;;;;;;;2.80;1.77;;;3.70;99.90;;;;;;5013986;28;20648;-86
2023/02/22 11:57:35;;;;;;;3.67;2.20;;;3.60;99.90;;;;;;5034870;28;20175;-83
2023/02/22 12:00:25;;;;;;;3.37;2.40;;;3.60;99.90;;;;;;5035554;28;20192;-85
2023/02/22 12:03:12;;;;;;;3.07;2.37;;;3.50;99.90;;;;;;5043145;28;20186;-84
2023/02/22 12:06:02;;;;;;;1.87;1.70;;;3.50;99.90;;;;;;5027703;28;20172;-84
2023/02/22 12:08:43;;;;;;;1.50;1.40;;;3.60;99.90;;;;;;5047268;28;20168;-84
2023/02/22 12:11:26;;;;;;;4.53;2.00;;;3.60;99.90;;;;;;5044400;28;20196;-83
2023/02/22 12:14:11;;;;;;;6.63;2.30;;;3.60;99.90;;;;;;5034635;28;20161;-84
2023/02/22 12:16:58;;;;;;;1.90;1.20;;;4.00;99.90;;;;;;5034881;28;20172;-84
2023/02/22 12:19:42;;;;;;;5.23;2.23;;;3.60;99.90;;;;;;5017659;28;20229;-83
2023/02/22 12:22:24;;;;;;;4.90;2.10;;;3.50;99.90;;;;;;5017080;28;20177;-83
2023/02/22 12:25:14;;;;;;;1.50;1.40;;;3.50;99.90;;;;;;5033755;28;20232;-84
2023/02/22 12:27:50;;;;;;;1.97;1.60;;;3.40;99.90;;;;;;5033601;28;20342;-84
2023/02/22 12:30:27;;;;;;;1.20;1.20;;;3.50;99.90;;;;;;5016038;28;20172;-85
2023/02/22 12:32:58;;;;;;;3.47;1.87;;;3.50;99.90;;;;;;5033556;28;20251;-84
2023/02/22 12:35:34;;;;;;;2.33;1.97;;;3.50;99.90;;;;;;5033160;28;20243;-86
2023/02/22 12:38:21;;;;;;;2.03;1.83;;;3.40;99.90;;;;;;5033632;28;20169;-84
2023/02/22 12:41:12;;;;;;;2.27;1.67;;;3.30;99.90;;;;;;5015453;28;20271;-84
2023/02/22 12:44:09;;;;;;;3.73;2.20;;;3.30;99.90;;;;;;5032808;28;20252;-85
2023/02/22 12:46:52;;;;;;;4.73;2.53;;;3.10;99.90;;;;;;5032654;28;20254;-84
2023/02/22 12:49:29;;;;;;;4.30;2.40;;;2.90;99.90;;;;;;5031386;28;20634;-85
2023/02/22 12:52:18;;;;;;;1.80;1.53;;;2.70;99.90;;;;;;5013250;28;20211;-84
2023/02/22 12:54:55;;;;;;;2.60;2.00;;;2.70;99.90;;;;;;5017121;28;20266;-84
2023/02/22 12:57:56;;;;;;;2.73;2.43;;;2.70;99.90;;;;;;5019259;28;20215;-86
2023/02/22 13:00:32;;;;;;;1.77;1.67;;;2.70;99.90;;;;;;5017501;28;20176;-86
2023/02/22 13:03:05;;;;;;;2.10;1.97;;;2.70;99.90;;;;;;5017594;28;20180;-85
2023/02/22 13:05:35;;;;;;;1.60;1.50;;;2.80;99.90;;;;;;5035203;28;20179;-85
2023/02/22 13:08:33;;;;;;;2.37;1.27;;;2.80;99.90;;;;;;5017391;28;20207;-86
2023/02/22 13:11:19;;;;;;;4.67;2.23;;;2.70;99.90;;;;;;5034429;28;20199;-84
2023/02/22 13:14:12;;;;;;;1.87;1.60;;;2.60;99.90;;;;;;5035469;28;20306;-84
2023/02/22 13:16:51;;;;;;;0.80;0.80;;;2.50;99.90;;;;;;5013772;28;20172;-85
2023/02/22 13:19:57;;;;;;;1.43;1.33;;;2.50;99.90;;;;;;5034037;28;20213;-85